Time;durP1;ratioP1;P1;durP2;ratioP2;P2;SDS_P1;SDS_P2;PMS_P1;PMS_P2;Temp;Humidity;BMP_temperature;BMP_pressure;BME280_temperature;BME280_humidity;BME280_pressure;Samples;Min_cycle;Max_cycle;Signal;HPM_P1;HPM_P2
2023/04/29 00:00:10;;;;;;;48.78;29.05;;;;;;;13.90;68.22;99394.06;5012372;28;20088;-83
2023/04/29 00:02:37;;;;;;;46.58;28.20;;;;;;;13.85;68.44;99393.59;5029859;28;20060;-84
2023/04/29 00:05:04;;;;;;;50.97;29.77;;;;;;;13.82;68.37;99401.75;5011965;28;20060;-83
2023/04/29 00:07:31;;;;;;;46.72;29.25;;;;;;;13.80;68.64;99407.16;5029846;28;20053;-83
2023/04/29 00:09:58;;;;;;;48.15;28.27;;;;;;;13.79;68.65;99405.47;5012427;28;20066;-83
2023/04/29 00:12:25;;;;;;;48.03;28.85;;;;;;;13.76;68.67;99410.19;5012398;28;20076;-84
2023/04/29 00:14:52;;;;;;;44.88;27.75;;;;;;;13.76;68.67;99410.19;5029392;28;20515;-83
2023/04/29 00:17:18;;;;;;;48.00;28.45;;;;;;;13.73;68.72;99410.41;5029387;28;20053;-83
2023/04/29 00:19:44;;;;;;;41.05;25.25;;;;;;;13.71;68.73;99404.41;5029670;28;20053;-83
2023/04/29 00:22:11;;;;;;;38.70;24.40;;;;;;;13.67;68.67;99407.25;5029617;28;20073;-83
2023/04/29 00:24:37;;;;;;;36.47;24.20;;;;;;;13.65;68.82;99417.09;5012319;28;20069;-84
2023/04/29 00:27:05;;;;;;;34.85;23.30;;;;;;;13.61;68.92;99410.34;5013831;28;20049;-83
2023/04/29 00:29:32;;;;;;;36.47;23.20;;;;;;;13.61;68.85;99418.28;5033394;28;20080;-83
2023/04/29 00:31:58;;;;;;;36.22;22.98;;;;;;;13.58;68.98;99415.91;5034009;28;20056;-83
2023/04/29 00:34:25;;;;;;;35.45;22.40;;;;;;;13.58;69.05;99425.63;5015889;28;20057;-83
2023/04/29 00:36:52;;;;;;;36.00;21.83;;;;;;;13.57;68.98;99421.31;5014956;28;20049;-83
2023/04/29 00:39:18;;;;;;;33.47;21.63;;;;;;;13.54;69.02;99428.50;5033465;28;20049;-83
2023/04/29 00:41:45;;;;;;;32.72;21.23;;;;;;;13.54;69.00;99435.59;5033826;28;20064;-83
2023/04/29 00:44:11;;;;;;;34.40;21.48;;;;;;;13.53;68.93;99436.56;5015625;28;20045;-82
2023/04/29 00:46:38;;;;;;;31.80;21.05;;;;;;;13.52;69.17;99440.13;5032548;28;20069;-82
2023/04/29 00:49:05;;;;;;;30.92;21.48;;;;;;;13.50;69.28;99444.72;5033205;28;20495;-83
2023/04/29 00:51:32;;;;;;;33.95;21.92;;;;;;;13.48;69.15;99443.97;5015368;28;20057;-83
2023/04/29 00:53:59;;;;;;;34.47;22.60;;;;;;;13.45;69.10;99445.00;5015535;28;20415;-83
2023/04/29 00:56:29;;;;;;;31.05;21.73;;;;;;;13.46;69.13;99445.88;5015383;28;20047;-84
2023/04/29 00:58:56;;;;;;;35.63;22.95;;;;;;;13.43;69.24;99453.06;5014984;28;20049;-84
2023/04/29 01:01:23;;;;;;;37.97;23.17;;;;;;;13.41;69.35;99449.69;5032918;28;20053;-84
2023/04/29 01:03:50;;;;;;;32.75;22.73;;;;;;;13.40;69.41;99452.44;5015317;28;20057;-83
2023/04/29 01:07:11;;;;;;;38.50;22.65;;;;;;;13.35;70.16;99454.59;5032583;28;20416;-83
2023/04/29 01:09:51;;;;;;;34.97;21.85;;;;;;;13.35;69.89;99465.16;4917130;29;20055;-83
2023/04/29 01:12:46;;;;;;;36.25;24.50;;;;;;;13.32;69.96;99455.66;5032792;28;20478;-82
2023/04/29 01:15:31;;;;;;;37.72;24.55;;;;;;;13.28;70.26;99462.13;5032461;28;20455;-83
2023/04/29 01:18:40;;;;;;;35.28;24.80;;;;;;;13.25;70.24;99471.13;5032199;28;20080;-82
2023/04/29 01:21:06;;;;;;;38.40;25.42;;;;;;;13.27;69.51;99474.50;4932741;29;20758;-82
2023/04/29 01:23:33;;;;;;;38.15;26.25;;;;;;;13.26;69.88;99474.59;5002966;28;20147;-82
2023/04/29 01:25:59;;;;;;;41.50;25.67;;;;;;;13.25;69.85;99483.50;5032130;28;20054;-82
2023/04/29 01:28:41;;;;;;;43.25;26.48;;;;;;;13.23;70.46;99483.59;5032125;28;20420;-82
2023/04/29 01:31:27;;;;;;;39.03;26.80;;;;;;;13.21;70.74;99479.38;5032225;28;20315;-83
2023/04/29 01:34:12;;;;;;;38.30;26.85;;;;;;;13.24;70.68;99487.09;5014936;28;20053;-83
2023/04/29 01:37:06;;;;;;;39.75;27.60;;;;;;;13.23;70.73;99488.06;5031455;28;20435;-83
2023/04/29 01:39:55;;;;;;;39.47;27.35;;;;;;;13.23;70.38;99485.41;5013756;28;20057;-83
2023/04/29 01:42:28;;;;;;;39.25;27.42;;;;;;;13.26;70.05;99495.75;5032630;28;20053;-83
2023/04/29 01:45:01;;;;;;;40.15;28.25;;;;;;;13.25;69.96;99492.28;5031849;28;20515;-84
2023/04/29 01:47:28;;;;;;;;;;;;;;;13.26;70.25;99501.03;5032320;28;20046;-84
2023/04/29 01:49:55;;;;;;;36.00;24.90;;;;;;;13.30;69.40;99499.84;5014228;28;20386;-83
2023/04/29 01:52:22;;;;;;;36.53;27.00;;;;;;;13.29;69.69;99503.47;5077500;22;20051;-79
2023/04/29 01:54:48;;;;;;;40.28;28.75;;;;;;;13.28;69.84;99501.78;5052490;28;20408;-79
2023/04/29 01:57:15;;;;;;;38.03;28.30;;;;;;;13.27;70.21;99503.56;5052141;28;20059;-77
2023/04/29 01:59:45;;;;;;;39.35;28.27;;;;;;;13.28;70.45;99509.72;5034667;28;20284;-77
2023/04/29 02:02:13;;;;;;;38.47;28.92;;;;;;;13.30;70.29;99505.13;5052649;28;20056;-79
2023/04/29 02:04:41;;;;;;;36.97;27.67;;;;;;;13.32;70.16;99519.09;5034650;28;20049;-78
2023/04/29 02:07:08;;;;;;;36.00;27.83;;;;;;;13.34;70.19;99519.00;5051407;28;20056;-78
2023/04/29 02:09:35;;;;;;;38.95;28.85;;;;;;;13.36;70.10;99517.94;5052101;28;20041;-78
2023/04/29 02:12:03;;;;;;;39.10;28.75;;;;;;;13.38;70.14;99523.94;5052469;28;20053;-77
2023/04/29 02:14:30;;;;;;;40.47;29.95;;;;;;;13.39;70.00;99519.50;5052269;28;20044;-78
2023/04/29 02:16:56;;;;;;;38.00;28.60;;;;;;;13.39;69.86;99527.44;5051293;28;20053;-79
2023/04/29 02:19:23;;;;;;;36.92;27.38;;;;;;;13.39;69.66;99530.09;5052018;28;20103;-79
2023/04/29 02:21:49;;;;;;;40.97;27.80;;;;;;;13.37;69.60;99527.53;5051931;28;20049;-78
2023/04/29 02:24:16;;;;;;;34.95;25.67;;;;;;;13.37;69.54;99531.97;5052197;28;20045;-78
2023/04/29 02:26:42;;;;;;;38.03;26.85;;;;;;;13.35;69.59;99534.72;5051375;28;20103;-79
2023/04/29 02:29:09;;;;;;;37.22;27.35;;;;;;;13.34;69.46;99538.34;5052007;28;20052;-78
2023/04/29 02:31:35;;;;;;;37.67;26.15;;;;;;;13.33;69.29;99543.72;5051814;28;20497;-79
2023/04/29 02:34:02;;;;;;;34.88;25.42;;;;;;;13.32;69.36;99548.19;5034129;28;20493;-78
2023/04/29 02:36:28;;;;;;;31.83;24.40;;;;;;;13.31;69.52;99554.44;5051203;28;20509;-78
2023/04/29 02:38:55;;;;;;;30.63;24.27;;;;;;;13.30;69.37;99550.09;5051558;28;20136;-78
2023/04/29 02:41:22;;;;;;;31.33;24.25;;;;;;;13.28;69.35;99552.00;5051754;28;20077;-78
2023/04/29 02:43:48;;;;;;;32.13;23.63;;;;;;;13.29;69.51;99559.81;5051718;28;20132;-78
2023/04/29 02:46:15;;;;;;;32.92;23.77;;;;;;;13.29;69.23;99564.25;5033474;28;20099;-78
2023/04/29 02:48:42;;;;;;;33.72;23.77;;;;;;;13.30;69.42;99573.88;5051163;28;20060;-79
2023/04/29 02:51:08;;;;;;;29.15;23.60;;;;;;;13.28;69.25;99570.50;5050390;28;20057;-80
2023/04/29 02:53:35;;;;;;;32.40;23.52;;;;;;;13.27;69.07;99574.13;5051727;28;20041;-78
2023/04/29 02:56:01;;;;;;;27.98;22.08;;;;;;;13.25;68.63;99576.88;5050955;28;20128;-77
2023/04/29 02:58:28;;;;;;;35.13;23.17;;;;;;;13.24;69.13;99579.59;5051003;28;20049;-78
2023/04/29 03:00:54;;;;;;;28.67;21.73;;;;;;;13.23;69.27;99575.28;5033488;28;20045;-78
2023/04/29 03:03:21;;;;;;;34.70;25.05;;;;;;;13.23;69.16;99580.56;5033433;28;20061;-77
2023/04/29 03:05:49;;;;;;;35.63;22.75;;;;;;;13.23;68.94;99580.56;5050809;28;20657;-78
2023/04/29 03:08:15;;;;;;;30.60;23.58;;;;;;;13.21;68.90;99583.31;5050999;28;20044;-78
2023/04/29 03:10:42;;;;;;;32.17;22.35;;;;;;;13.21;68.90;99587.75;5051344;28;20056;-78
2023/04/29 03:13:08;;;;;;;33.35;23.65;;;;;;;13.19;68.96;99593.13;5051181;28;20102;-78
2023/04/29 03:15:35;;;;;;;37.45;24.65;;;;;;;13.18;68.99;99591.47;5050582;28;20058;-78
2023/04/29 03:18:03;;;;;;;33.78;24.98;;;;;;;13.17;69.08;99589.78;5050462;28;20422;-78
2023/04/29 03:20:31;;;;;;;34.50;23.80;;;;;;;13.16;68.92;99598.66;5051391;28;20049;-78
2023/04/29 03:22:59;;;;;;;35.58;25.00;;;;;;;13.14;68.99;99597.91;5050943;28;20416;-79
2023/04/29 03:25:27;;;;;;;36.05;24.77;;;;;;;13.12;68.93;99603.28;5050612;28;20048;-78
2023/04/29 03:27:53;;;;;;;36.17;23.98;;;;;;;13.11;68.93;99606.91;5050421;28;20064;-78
2023/04/29 03:30:20;;;;;;;35.97;25.58;;;;;;;13.10;68.89;99612.28;5050838;28;20443;-78
2023/04/29 03:32:47;;;;;;;33.67;24.08;;;;;;;13.06;69.13;99611.66;5032910;28;20524;-77
2023/04/29 03:35:13;;;;;;;36.58;24.05;;;;;;;13.04;68.97;99608.28;5050688;28;20049;-77
2023/04/29 03:37:43;;;;;;;32.20;22.85;;;;;;;13.02;68.92;99607.56;5050264;28;20417;-78
2023/04/29 03:40:10;;;;;;;35.63;24.38;;;;;;;12.99;69.08;99607.75;5050835;28;20060;-77
2023/04/29 03:42:37;;;;;;;33.45;23.88;;;;;;;12.98;69.50;99616.63;5050599;28;20045;-77
2023/04/29 03:45:04;;;;;;;34.10;23.30;;;;;;;12.97;69.35;99615.78;5050204;28;20114;-77
2023/04/29 03:47:31;;;;;;;30.17;21.70;;;;;;;12.97;69.23;99614.97;5050069;28;20052;-77
2023/04/29 03:49:57;;;;;;;31.77;21.75;;;;;;;12.96;69.64;99624.66;5033079;28;20047;-78
2023/04/29 03:52:24;;;;;;;28.38;21.13;;;;;;;12.95;69.46;99614.19;5050557;28;20444;-78
2023/04/29 03:54:51;;;;;;;28.15;20.25;;;;;;;12.96;69.49;99616.75;5032803;28;20045;-78
2023/04/29 03:57:17;;;;;;;27.10;20.00;;;;;;;12.97;69.68;99617.59;5050071;28;20140;-78
2023/04/29 03:59:44;;;;;;;27.52;19.60;;;;;;;12.97;69.36;99620.25;5050256;28;20551;-78
2023/04/29 04:02:10;;;;;;;27.83;19.85;;;;;;;12.97;69.25;99626.34;5050188;28;20490;-77
2023/04/29 04:04:37;;;;;;;25.45;19.05;;;;;;;12.98;69.33;99628.03;5050389;28;20409;-77
2023/04/29 04:07:04;;;;;;;24.60;16.95;;;;;;;12.98;69.59;99633.31;5031757;28;20520;-78
2023/04/29 04:09:32;;;;;;;23.25;18.45;;;;;;;13.00;69.52;99636.72;5050530;28;20052;-79
2023/04/29 04:11:59;;;;;;;24.30;18.38;;;;;;;12.99;69.37;99632.38;5050332;28;20091;-78
2023/04/29 04:14:26;;;;;;;22.65;17.42;;;;;;;12.99;69.37;99634.19;5050351;28;20045;-77
2023/04/29 04:16:53;;;;;;;22.30;17.45;;;;;;;12.99;69.32;99657.94;5049576;28;20537;-78
2023/04/29 04:19:20;;;;;;;25.40;18.00;;;;;;;12.98;69.31;99653.63;5050134;28;20061;-78
2023/04/29 04:21:46;;;;;;;24.08;17.92;;;;;;;12.97;69.44;99662.50;5050303;28;20045;-77
2023/04/29 04:24:12;;;;;;;24.17;18.75;;;;;;;12.95;69.38;99656.47;5050455;28;20046;-78
2023/04/29 04:26:40;;;;;;;22.95;18.23;;;;;;;12.94;69.50;99660.94;5049475;28;20416;-78
2023/04/29 04:29:06;;;;;;;21.45;16.85;;;;;;;12.94;69.38;99665.34;5050114;28;20650;-78
2023/04/29 04:31:33;;;;;;;24.35;17.08;;;;;;;12.94;69.72;99668.00;5050354;28;20276;-79
2023/04/29 04:33:59;;;;;;;23.67;18.30;;;;;;;12.94;69.74;99670.63;5050462;28;20055;-78
2023/04/29 04:36:27;;;;;;;33.38;18.95;;;;;;;12.93;69.55;99669.78;5049853;28;20049;-77
2023/04/29 04:38:53;;;;;;;23.90;18.90;;;;;;;12.93;69.36;99672.44;5049690;28;20057;-79
2023/04/29 04:41:20;;;;;;;23.30;18.55;;;;;;;12.94;69.46;99678.56;5050002;28;20413;-79
2023/04/29 04:43:46;;;;;;;27.92;19.38;;;;;;;12.94;69.65;99689.13;5049973;28;20052;-78
2023/04/29 04:46:14;;;;;;;25.63;18.85;;;;;;;12.94;69.69;99697.06;5049818;28;20583;-77
2023/04/29 04:48:41;;;;;;;28.23;20.20;;;;;;;12.95;69.62;99696.09;5031960;28;20444;-78
2023/04/29 04:51:09;;;;;;;26.83;20.25;;;;;;;12.96;69.64;99700.44;5049978;28;20559;-79
2023/04/29 04:53:36;;;;;;;27.20;20.70;;;;;;;12.97;69.51;99702.16;5049860;28;20045;-78
2023/04/29 04:56:03;;;;;;;26.13;21.45;;;;;;;12.98;69.59;99711.75;5049589;28;20061;-78
2023/04/29 04:58:31;;;;;;;26.52;20.33;;;;;;;12.97;69.51;99705.63;5049551;28;20092;-77
2023/04/29 05:00:58;;;;;;;29.95;22.10;;;;;;;12.98;69.48;99706.47;5049969;28;20059;-77
2023/04/29 05:03:25;;;;;;;33.17;22.17;;;;;;;12.98;69.60;99714.41;5032396;28;20057;-77
2023/04/29 05:05:57;;;;;;;28.50;21.85;;;;;;;12.95;69.88;99722.53;5049658;28;20055;-78
2023/04/29 05:08:24;;;;;;;30.70;22.25;;;;;;;12.96;69.54;99719.78;5031623;28;20057;-78
2023/04/29 05:10:53;;;;;;;30.33;22.48;;;;;;;12.96;69.68;99724.22;5049807;28;20076;-78
2023/04/29 05:13:20;;;;;;;29.65;21.85;;;;;;;12.96;69.53;99727.72;5050586;28;20049;-78
2023/04/29 05:15:46;;;;;;;26.83;21.77;;;;;;;12.97;69.51;99726.75;5052975;28;20049;-79
2023/04/29 05:18:17;;;;;;;32.13;24.38;;;;;;;12.94;69.82;99731.41;5052518;28;20053;-79
2023/04/29 05:20:44;;;;;;;30.30;23.20;;;;;;;12.96;69.40;99733.00;5067433;23;20056;-79
2023/04/29 05:23:32;;;;;;;29.88;23.88;;;;;;;12.97;69.51;99725.94;5046994;23;20080;-79
2023/04/29 05:25:58;;;;;;;31.65;23.85;;;;;;;12.97;69.54;99745.25;5034407;28;20593;-79
2023/04/29 05:28:24;;;;;;;33.97;25.27;;;;;;;12.96;69.55;99733.00;5052167;28;20500;-79
2023/04/29 05:30:53;;;;;;;33.33;25.25;;;;;;;12.97;69.53;99739.13;5052077;28;20084;-79
2023/04/29 05:33:20;;;;;;;32.67;24.85;;;;;;;12.97;69.35;99741.78;5052166;28;20049;-79
2023/04/29 05:35:46;;;;;;;34.00;25.27;;;;;;;12.96;69.41;99755.91;5051634;28;20096;-79
2023/04/29 05:38:13;;;;;;;34.83;25.63;;;;;;;12.93;69.48;99749.03;5051808;28;20134;-79
2023/04/29 05:40:39;;;;;;;34.05;25.33;;;;;;;12.93;69.45;99759.59;5052026;28;20049;-79
2023/04/29 05:43:06;;;;;;;44.53;26.60;;;;;;;12.92;69.46;99767.63;5034439;28;20053;-80
2023/04/29 05:45:32;;;;;;;40.00;26.90;;;;;;;12.92;69.56;99765.00;5051783;28;20064;-79
2023/04/29 05:47:58;;;;;;;38.05;27.75;;;;;;;12.92;69.54;99767.63;5051658;28;20110;-79
2023/04/29 05:50:25;;;;;;;38.03;27.92;;;;;;;12.89;69.53;99772.19;5034072;28;20499;-79
2023/04/29 05:52:53;;;;;;;40.20;27.67;;;;;;;12.89;69.48;99771.34;5051763;28;20111;-79
2023/04/29 05:55:19;;;;;;;41.63;27.42;;;;;;;12.88;69.59;99773.16;5051366;28;20115;-79
2023/04/29 05:57:46;;;;;;;36.60;26.85;;;;;;;12.88;69.75;99778.44;5051338;28;20124;-79
2023/04/29 06:00:12;;;;;;;40.28;28.00;;;;;;;12.90;69.64;99783.63;5051759;28;20053;-79
2023/04/29 06:02:41;;;;;;;59.97;29.50;;;;;;;12.90;69.68;99784.44;5051600;28;20491;-79
2023/04/29 06:05:23;;;;;;;38.97;27.58;;;;;;;12.92;69.36;99792.28;5051679;28;20475;-79
2023/04/29 06:07:50;;;;;;;41.47;28.27;;;;;;;12.92;69.49;99804.63;5051324;28;20471;-79
2023/04/29 06:10:17;;;;;;;50.03;31.08;;;;;;;12.90;69.58;99805.56;5051582;28;20459;-79
2023/04/29 06:12:43;;;;;;;40.25;30.05;;;;;;;12.89;69.40;99808.31;5033796;28;20095;-79
2023/04/29 06:15:10;;;;;;;41.72;29.52;;;;;;;12.87;69.45;99805.78;5050916;28;20578;-79
2023/04/29 06:17:36;;;;;;;44.92;30.13;;;;;;;12.87;69.40;99821.63;5051055;28;20157;-79
2023/04/29 06:20:03;;;;;;;45.90;29.27;;;;;;;12.85;69.39;99823.53;5051405;28;20360;-79
2023/04/29 06:22:30;;;;;;;45.10;29.95;;;;;;;12.85;69.50;99831.47;5051231;28;20095;-79
2023/04/29 06:24:56;;;;;;;43.30;30.70;;;;;;;12.86;69.62;99829.69;5050668;28;20053;-79
2023/04/29 06:27:22;;;;;;;44.25;29.85;;;;;;;12.85;69.52;99836.75;5050708;28;20483;-79
2023/04/29 06:29:49;;;;;;;42.17;29.10;;;;;;;12.86;69.49;99833.16;5051064;28;20491;-79
2023/04/29 06:32:15;;;;;;;44.00;29.20;;;;;;;12.84;69.49;99842.97;5051018;28;20087;-79
2023/04/29 06:34:41;;;;;;;43.83;30.95;;;;;;;12.85;69.31;99847.31;5051152;28;20056;-79
2023/04/29 06:37:08;;;;;;;44.00;30.10;;;;;;;12.84;69.43;99845.63;5050578;28;20049;-79
2023/04/29 06:39:34;;;;;;;41.47;28.15;;;;;;;12.86;69.51;99845.53;5050986;28;20462;-79
2023/04/29 06:42:01;;;;;;;43.75;29.95;;;;;;;12.87;69.53;99855.97;5050803;28;20404;-79
2023/04/29 06:44:27;;;;;;;42.92;28.35;;;;;;;12.90;69.89;99852.31;5049978;28;20096;-79
2023/04/29 06:46:54;;;;;;;43.13;30.35;;;;;;;12.93;69.97;99861.81;5030598;28;20099;-79
2023/04/29 06:49:20;;;;;;;39.58;28.98;;;;;;;12.95;69.84;99858.13;5025939;28;20412;-79
2023/04/29 06:51:46;;;;;;;38.38;29.20;;;;;;;12.99;69.81;99858.75;5046891;28;20528;-79
2023/04/29 06:54:13;;;;;;;40.75;29.50;;;;;;;13.03;69.67;99861.13;5034010;28;20080;-79
2023/04/29 06:56:39;;;;;;;35.22;26.35;;;;;;;13.07;69.81;99867.03;5029882;28;20049;-80
2023/04/29 06:59:06;;;;;;;41.25;29.02;;;;;;;13.09;69.65;99865.13;5030401;28;20456;-79
2023/04/29 07:01:32;;;;;;;40.35;29.05;;;;;;;13.12;69.59;99872.88;5030751;28;20061;-79
2023/04/29 07:03:59;;;;;;;39.78;28.02;;;;;;;13.17;69.64;99875.22;5030416;28;20474;-79
2023/04/29 07:06:25;;;;;;;39.10;28.00;;;;;;;13.20;69.39;99874.16;5032832;28;20056;-79
2023/04/29 07:08:52;;;;;;;36.80;27.42;;;;;;;13.23;69.44;99876.59;5012176;28;20100;-79
2023/04/29 07:11:23;;;;;;;39.28;26.23;;;;;;;13.27;69.36;99884.22;5030232;28;20061;-79
2023/04/29 07:13:52;;;;;;;38.33;26.90;;;;;;;13.28;69.40;99883.25;5035936;28;20050;-80
2023/04/29 07:16:25;;;;;;;37.58;27.20;;;;;;;13.36;69.46;99895.13;5038638;28;20041;-79
2023/04/29 07:18:51;;;;;;;38.95;27.25;;;;;;;13.40;69.44;99901.91;5038590;28;20527;-79
2023/04/29 07:21:18;;;;;;;36.92;27.08;;;;;;;13.45;68.94;99901.63;5034734;28;20057;-79
2023/04/29 07:23:44;;;;;;;40.05;26.65;;;;;;;13.48;69.12;99909.34;5012645;28;20091;-79
2023/04/29 07:26:15;;;;;;;38.17;27.13;;;;;;;13.51;68.77;99909.16;5029781;28;20495;-79
2023/04/29 07:28:42;;;;;;;37.15;25.80;;;;;;;13.55;68.82;99911.50;5030041;28;20125;-79
2023/04/29 07:31:10;;;;;;;40.20;26.92;;;;;;;13.56;68.23;99914.97;5012521;28;20108;-79
2023/04/29 07:33:37;;;;;;;36.75;26.30;;;;;;;13.60;68.72;99913.81;5030157;28;20049;-79
2023/04/29 07:36:06;;;;;;;36.67;26.13;;;;;;;13.62;68.74;99922.53;5029251;28;20052;-79
2023/04/29 07:38:33;;;;;;;36.33;25.65;;;;;;;13.67;68.86;99925.69;5029350;28;20077;-79
2023/04/29 07:40:59;;;;;;;36.22;25.63;;;;;;;13.71;68.83;99925.50;5029775;28;20088;-79
2023/04/29 07:43:25;;;;;;;38.40;25.58;;;;;;;13.76;68.85;99933.97;5030072;28;20092;-79
2023/04/29 07:45:52;;;;;;;32.63;23.90;;;;;;;13.81;68.50;99937.16;5029605;28;20111;-79
2023/04/29 07:48:20;;;;;;;36.05;24.05;;;;;;;13.86;68.24;99944.78;5029543;28;20045;-79
2023/04/29 07:50:46;;;;;;;37.33;23.98;;;;;;;13.88;68.10;99954.31;5029700;28;20466;-79
2023/04/29 07:53:14;;;;;;;35.67;23.02;;;;;;;13.90;68.02;99952.38;5162390;22;20041;-78
2023/04/29 07:55:41;;;;;;;31.52;22.38;;;;;;;13.93;68.05;99961.91;5050152;28;20045;-78
2023/04/29 07:58:07;;;;;;;37.15;24.02;;;;;;;13.94;68.20;99969.75;5049915;28;20049;-79
2023/04/29 08:00:33;;;;;;;30.85;23.45;;;;;;;13.99;68.23;99963.31;5050509;28;20063;-78
2023/04/29 08:03:00;;;;;;;31.17;23.63;;;;;;;14.03;68.37;99970.94;5050621;28;20060;-78
2023/04/29 08:05:29;;;;;;;34.70;22.65;;;;;;;14.11;68.30;99970.41;5050222;28;20049;-79
2023/04/29 08:07:56;;;;;;;29.75;22.23;;;;;;;14.17;68.07;99972.63;5032419;28;20494;-77
2023/04/29 08:10:22;;;;;;;33.95;24.10;;;;;;;14.25;68.01;99971.25;5032716;28;20045;-78
2023/04/29 08:12:49;;;;;;;32.45;23.10;;;;;;;14.29;67.95;99978.03;5050309;28;20118;-78
2023/04/29 08:15:17;;;;;;;32.08;23.23;;;;;;;14.35;67.69;99982.06;5050232;28;20087;-78
2023/04/29 08:17:43;;;;;;;29.45;21.98;;;;;;;14.39;67.80;99981.72;5050009;28;20083;-79
2023/04/29 08:20:10;;;;;;;29.75;23.15;;;;;;;14.44;67.50;99987.53;5050443;28;20084;-78
2023/04/29 08:22:37;;;;;;;31.35;23.42;;;;;;;14.49;67.71;99994.31;5032417;28;20040;-79
2023/04/29 08:25:04;;;;;;;31.20;22.55;;;;;;;14.53;67.60;100001.97;5049870;28;20051;-78
2023/04/29 08:27:31;;;;;;;31.38;21.70;;;;;;;14.60;67.53;100002.38;5032254;28;20653;-77
2023/04/29 08:29:57;;;;;;;26.88;20.00;;;;;;;14.65;67.53;99997.59;5050440;28;20057;-78
2023/04/29 08:32:24;;;;;;;24.58;20.08;;;;;;;14.71;67.50;100002.47;5050422;28;20049;-78
2023/04/29 08:34:51;;;;;;;28.40;20.08;;;;;;;14.80;67.42;100002.81;5049621;28;20541;-78
2023/04/29 08:37:19;;;;;;;26.02;18.92;;;;;;;14.88;67.70;100005.75;5049661;28;20588;-78
2023/04/29 08:39:46;;;;;;;30.42;20.10;;;;;;;14.97;67.60;100013.06;5049905;28;20088;-78
2023/04/29 08:42:13;;;;;;;26.05;19.95;;;;;;;15.08;67.64;100016.75;5032231;28;20133;-78
2023/04/29 08:44:40;;;;;;;26.83;19.77;;;;;;;15.18;67.51;100027.53;5050215;28;20049;-78
2023/04/29 08:47:08;;;;;;;27.58;20.77;;;;;;;15.29;67.00;100029.41;5049478;28;20136;-78
2023/04/29 08:49:36;;;;;;;28.40;19.80;;;;;;;15.39;66.81;100030.41;5053162;28;20071;-78
2023/04/29 08:52:03;;;;;;;26.13;18.30;;;;;;;15.48;66.60;100023.59;5053658;28;20497;-78
2023/04/29 08:54:31;;;;;;;25.45;17.88;;;;;;;15.58;66.39;100029.06;5053929;28;20049;-79
2023/04/29 08:56:59;;;;;;;26.77;16.98;;;;;;;15.66;66.22;100037.31;5052990;28;20060;-78
2023/04/29 08:59:26;;;;;;;28.40;17.95;;;;;;;15.74;66.02;100034.09;5053750;28;20132;-78
2023/04/29 09:01:55;;;;;;;21.80;16.33;;;;;;;15.84;65.92;100039.53;5036040;28;20059;-78
2023/04/29 09:04:47;;;;;;;25.02;16.88;;;;;;;15.90;64.68;100044.41;5053605;28;20060;-78
2023/04/29 09:07:16;;;;;;;26.85;16.75;;;;;;;16.02;65.10;100042.66;5053311;28;20060;-79
2023/04/29 09:09:42;;;;;;;20.95;15.77;;;;;;;16.09;65.09;100040.38;5053792;28;20049;-79
2023/04/29 09:12:09;;;;;;;19.83;15.77;;;;;;;16.15;64.68;100045.25;5053590;28;20055;-79
2023/04/29 09:14:36;;;;;;;22.95;14.43;;;;;;;16.20;64.57;100048.41;5053507;28;20052;-79
2023/04/29 09:17:02;;;;;;;19.13;15.35;;;;;;;16.25;64.23;100043.56;5052689;28;20053;-79
2023/04/29 09:19:31;;;;;;;22.45;15.80;;;;;;;16.33;64.02;100044.81;5053158;28;20481;-78
2023/04/29 09:21:58;;;;;;;17.67;14.43;;;;;;;16.39;64.06;100054.94;5053395;28;20128;-79
2023/04/29 09:24:29;;;;;;;18.38;14.98;;;;;;;16.45;63.07;100049.16;5053352;28;20053;-78
2023/04/29 09:26:56;;;;;;;20.83;14.50;;;;;;;16.54;63.97;100050.25;5034940;28;20059;-78
2023/04/29 09:29:22;;;;;;;18.70;13.98;;;;;;;16.61;63.71;100055.94;5053176;28;20096;-78
2023/04/29 09:31:49;;;;;;;18.83;14.07;;;;;;;16.68;63.71;100057.16;5053119;28;20059;-79
2023/04/29 09:34:16;;;;;;;24.73;14.05;;;;;;;16.75;63.80;100054.88;5053207;28;20079;-78
2023/04/29 09:36:45;;;;;;;16.95;13.43;;;;;;;16.82;63.21;100060.56;5052554;28;20128;-78
2023/04/29 09:39:16;;;;;;;17.08;13.70;;;;;;;16.90;63.28;100066.94;5035244;28;20098;-78
2023/04/29 09:41:51;;;;;;;19.45;12.82;;;;;;;16.96;61.68;100073.59;5035335;28;20135;-78
2023/04/29 09:44:21;;;;;;;17.73;13.25;;;;;;;17.07;62.53;100075.44;5052809;28;20085;-78
2023/04/29 09:47:03;;;;;;;14.63;12.60;;;;;;;17.12;61.52;100069.75;5052328;28;20052;-78
2023/04/29 09:49:39;;;;;;;16.42;12.57;;;;;;;17.22;61.66;100078.69;5052746;28;20477;-78
2023/04/29 09:52:15;;;;;;;13.82;11.73;;;;;;;17.26;61.11;100080.13;5052871;28;20049;-78
2023/04/29 09:54:42;;;;;;;21.00;12.40;;;;;;;17.35;62.01;100088.34;5052761;28;20057;-78
2023/04/29 09:57:11;;;;;;;16.27;12.27;;;;;;;17.37;61.27;100087.25;5052133;28;20406;-79
2023/04/29 09:59:39;;;;;;;14.32;11.40;;;;;;;17.43;60.89;100094.72;5034404;28;20037;-79
2023/04/29 10:02:11;;;;;;;15.82;12.50;;;;;;;17.46;60.38;100096.31;5052515;28;20049;-79
2023/04/29 10:04:40;;;;;;;14.95;10.68;;;;;;;17.50;60.33;100089.78;5052568;28;20045;-78
2023/04/29 10:07:08;;;;;;;15.00;10.85;;;;;;;17.55;60.66;100090.25;5051739;28;20055;-79
2023/04/29 10:09:38;;;;;;;15.85;11.18;;;;;;;17.61;60.78;100091.56;5052486;28;20052;-78
2023/04/29 10:12:06;;;;;;;14.57;10.93;;;;;;;17.70;61.00;100087.28;5052515;28;20139;-78
2023/04/29 10:14:42;;;;;;;16.25;11.65;;;;;;;17.82;60.29;100085.44;5052339;28;20045;-78
2023/04/29 10:17:31;;;;;;;15.52;11.00;;;;;;;17.95;59.79;100082.63;5052064;28;20049;-77
2023/04/29 10:20:05;;;;;;;19.05;11.10;;;;;;;18.11;59.63;100084.88;5052276;28;20056;-78
2023/04/29 10:22:39;;;;;;;16.60;10.52;;;;;;;18.25;59.24;100093.50;5052089;28;20444;-78
2023/04/29 10:25:08;;;;;;;13.57;9.82;;;;;;;18.35;59.20;100097.09;5051868;28;20049;-78
2023/04/29 10:27:36;;;;;;;14.00;11.25;;;;;;;18.40;58.78;100088.72;5051697;28;20088;-78
2023/04/29 10:30:05;;;;;;;14.77;11.57;;;;;;;18.44;58.88;100092.81;5051973;28;20061;-79
2023/04/29 10:32:34;;;;;;;13.18;10.63;;;;;;;18.48;58.75;100088.91;5052372;28;20409;-78
2023/04/29 10:35:21;;;;;;;11.05;9.80;;;;;;;18.56;59.04;100094.44;5051706;28;20048;-78
2023/04/29 10:37:48;;;;;;;15.38;10.32;;;;;;;18.64;59.27;100088.44;5051675;28;20635;-78
2023/04/29 10:40:25;;;;;;;14.80;10.63;;;;;;;18.69;57.48;100094.19;5051787;28;20045;-78
2023/04/29 10:42:53;;;;;;;15.30;9.93;;;;;;;18.77;57.76;100085.56;5052198;28;20049;-79
2023/04/29 10:45:31;;;;;;;17.00;11.40;;;;;;;18.73;56.25;100084.97;5051495;28;20053;-78
2023/04/29 10:48:05;;;;;;;11.77;9.18;;;;;;;18.74;55.60;100088.50;5051352;28;20572;-79
2023/04/29 10:50:33;;;;;;;13.32;10.73;;;;;;;18.74;57.59;100086.69;5051849;28;20059;-79
2023/04/29 10:53:04;;;;;;;14.20;11.18;;;;;;;18.81;57.56;100089.66;5051503;28;20080;-79
2023/04/29 10:55:34;;;;;;;14.45;10.85;;;;;;;18.98;58.88;100081.97;5051225;28;20651;-79
2023/04/29 10:58:02;;;;;;;12.50;9.57;;;;;;;19.15;57.80;100088.56;5033499;28;20136;-78
2023/04/29 11:00:31;;;;;;;12.65;8.95;;;;;;;19.26;55.77;100093.75;5051365;28;20067;-78
2023/04/29 11:03:00;;;;;;;11.75;9.25;;;;;;;19.32;54.97;100091.56;5033705;28;20052;-78
2023/04/29 11:05:36;;;;;;;14.07;10.23;;;;;;;19.25;52.98;100089.41;5033281;28;20164;-78
2023/04/29 11:08:09;;;;;;;11.10;8.93;;;;;;;19.24;53.66;100089.53;5051119;28;20080;-78
2023/04/29 11:10:37;;;;;;;14.40;9.10;;;;;;;19.23;54.63;100090.53;5050619;28;20107;-79
2023/04/29 11:13:27;;;;;;;11.93;9.05;;;;;;;19.13;53.61;100102.03;5033635;28;20476;-79
2023/04/29 11:16:12;;;;;;;12.27;9.52;;;;;;;19.04;53.74;100092.13;5050622;28;20049;-78
2023/04/29 11:19:05;;;;;;;10.60;8.68;;;;;;;18.94;53.08;100100.09;5050913;28;20433;-79
2023/04/29 11:21:36;;;;;;;11.35;8.07;;;;;;;18.85;52.47;100104.41;5051395;28;20102;-78
2023/04/29 11:24:05;;;;;;;11.63;8.05;;;;;;;18.80;54.72;100105.78;5051058;28;20196;-79